createdAt,value
2018-01-26T00:01:16.800Z,13.30
2018-01-26T00:03:44.234Z,9.63
2018-01-26T00:06:11.676Z,9.90
2018-01-26T00:08:39.102Z,8.63
2018-01-26T00:11:06.538Z,7.40
2018-01-26T00:13:33.972Z,9.37
2018-01-26T00:16:01.403Z,15.40
2018-01-26T00:18:28.878Z,11.20
2018-01-26T00:20:56.324Z,9.33
2018-01-26T00:23:24.529Z,6.30
2018-01-26T00:25:52.731Z,8.43
2018-01-26T00:28:20.168Z,9.23
2018-01-26T00:30:47.611Z,10.93
2018-01-26T00:33:15.048Z,9.93
2018-01-26T00:35:42.486Z,12.83
2018-01-26T00:38:09.928Z,13.87
2018-01-26T00:40:38.134Z,14.03
2018-01-26T00:43:05.571Z,13.30
2018-01-26T00:45:33.008Z,14.57
2018-01-26T00:48:00.454Z,12.23
2018-01-26T00:50:27.888Z,9.63
2018-01-26T00:52:55.322Z,8.70
2018-01-26T00:55:23.522Z,8.97
2018-01-26T00:57:51.742Z,6.83
2018-01-26T01:00:19.166Z,6.80
2018-01-26T01:02:46.599Z,7.90
2018-01-26T01:05:14.037Z,6.70
2018-01-26T01:07:41.480Z,7.70
2018-01-26T01:10:08.907Z,8.60
2018-01-26T01:12:36.343Z,8.33
2018-01-26T01:15:03.775Z,6.57
2018-01-26T01:17:31.214Z,7.43
2018-01-26T01:19:58.646Z,5.83
2018-01-26T01:22:26.851Z,6.70
2018-01-26T01:24:55.051Z,6.40
2018-01-26T01:27:22.487Z,6.47
2018-01-26T01:29:49.915Z,6.10
2018-01-26T01:32:17.351Z,5.90
2018-01-26T01:34:44.779Z,5.60
2018-01-26T01:37:12.232Z,5.97
2018-01-26T01:39:39.663Z,4.73
2018-01-26T01:42:07.099Z,5.60
2018-01-26T01:44:34.523Z,6.50
2018-01-26T01:47:01.950Z,5.80
2018-01-26T01:49:29.394Z,6.60
2018-01-26T01:51:56.823Z,5.70
2018-01-26T01:54:25.022Z,7.00
2018-01-26T01:56:53.219Z,6.13
2018-01-26T01:59:21.424Z,5.13
2018-01-26T02:01:49.619Z,6.00
2018-01-26T02:04:17.815Z,5.53
2018-01-26T02:06:46.006Z,5.50
2018-01-26T02:09:13.444Z,5.90
2018-01-26T02:11:40.871Z,4.53
2018-01-26T02:14:08.302Z,4.97
2018-01-26T02:16:35.756Z,5.83
2018-01-26T02:19:03.954Z,4.20
2018-01-26T02:21:31.383Z,5.00
2018-01-26T02:24:16.491Z,4.67
2018-01-26T02:26:43.918Z,5.20
2018-01-26T02:29:11.350Z,4.53
2018-01-26T02:31:38.784Z,5.20
2018-01-26T02:34:06.218Z,4.73
2018-01-26T02:36:33.647Z,3.97
2018-01-26T02:39:01.079Z,3.90
2018-01-26T02:41:28.517Z,4.40
2018-01-26T02:43:55.996Z,4.70
2018-01-26T02:46:23.410Z,3.40
2018-01-26T02:48:50.843Z,3.77
2018-01-26T02:51:18.271Z,3.80
2018-01-26T02:53:45.717Z,3.77
2018-01-26T02:56:13.147Z,4.33
2018-01-26T02:58:40.580Z,4.10
2018-01-26T03:01:08.006Z,3.40
2018-01-26T03:03:35.439Z,4.07
2018-01-26T03:06:02.866Z,3.70
2018-01-26T03:08:30.303Z,4.10
2018-01-26T03:10:57.734Z,3.50
2018-01-26T03:13:25.922Z,3.70
2018-01-26T03:15:53.354Z,4.07
2018-01-26T03:18:20.788Z,4.10
2018-01-26T03:20:48.223Z,4.20
2018-01-26T03:23:15.651Z,4.33
2018-01-26T03:25:43.091Z,4.00
2018-01-26T03:28:10.518Z,3.60
2018-01-26T03:30:38.718Z,4.00
2018-01-26T03:33:06.910Z,3.53
2018-01-26T03:35:34.347Z,4.23
2018-01-26T03:38:01.770Z,3.40
2018-01-26T03:40:29.211Z,3.90
2018-01-26T03:42:56.637Z,3.80
2018-01-26T03:45:24.843Z,3.90
2018-01-26T03:47:53.034Z,4.17
2018-01-26T03:50:21.247Z,4.13
2018-01-26T03:52:49.439Z,3.63
2018-01-26T03:55:17.652Z,4.90
2018-01-26T03:57:45.842Z,4.30
2018-01-26T04:00:14.033Z,4.10
2018-01-26T04:02:41.462Z,3.50
2018-01-26T04:05:08.899Z,3.80
2018-01-26T04:07:37.099Z,3.80
2018-01-26T04:10:05.290Z,3.30
2018-01-26T04:12:32.723Z,3.30
2018-01-26T04:15:00.151Z,3.60
2018-01-26T04:17:27.591Z,3.50
2018-01-26T04:19:55.033Z,3.20
2018-01-26T04:22:23.218Z,2.90
2018-01-26T04:24:51.416Z,3.90
2018-01-26T04:27:19.610Z,4.00
2018-01-26T04:29:47.798Z,3.33
2018-01-26T04:32:15.231Z,3.50
2018-01-26T04:34:42.658Z,3.43
2018-01-26T04:37:10.094Z,3.30
2018-01-26T04:39:37.524Z,3.40
2018-01-26T04:42:04.954Z,3.37
2018-01-26T04:44:32.378Z,3.33
2018-01-26T04:46:59.807Z,3.40
2018-01-26T04:49:27.238Z,3.70
2018-01-26T04:51:54.661Z,3.33
2018-01-26T04:54:22.099Z,3.13
2018-01-26T04:56:49.536Z,4.50
2018-01-26T04:59:16.963Z,3.60
2018-01-26T05:01:44.396Z,3.60
2018-01-26T05:04:11.830Z,3.03
2018-01-26T05:06:40.026Z,3.40
2018-01-26T05:09:07.454Z,3.40
2018-01-26T05:11:34.882Z,3.07
2018-01-26T05:14:02.308Z,3.30
2018-01-26T05:16:29.729Z,3.63
2018-01-26T05:18:57.161Z,3.30
2018-01-26T05:21:24.587Z,3.20
2018-01-26T05:23:52.026Z,2.90
2018-01-26T05:26:19.446Z,3.07
2018-01-26T05:28:46.937Z,3.20
2018-01-26T05:31:14.306Z,2.70
2018-01-26T05:33:41.751Z,3.20
2018-01-26T05:36:09.231Z,2.67
2018-01-26T05:38:36.659Z,2.57
2018-01-26T05:41:04.087Z,3.00
2018-01-26T05:43:31.514Z,3.23
2018-01-26T05:45:58.942Z,3.00
2018-01-26T05:48:26.397Z,2.97
2018-01-26T05:50:53.814Z,3.23
2018-01-26T05:53:21.245Z,2.50
2018-01-26T05:55:48.679Z,3.13
2018-01-26T05:58:16.101Z,3.10
2018-01-26T06:00:43.543Z,2.90
2018-01-26T06:03:10.963Z,3.60
2018-01-26T06:05:38.406Z,3.73
2018-01-26T06:08:05.839Z,6.50
2018-01-26T06:10:33.283Z,6.40
2018-01-26T06:13:00.715Z,8.50
2018-01-26T06:15:28.914Z,9.23
2018-01-26T06:17:57.110Z,7.97
2018-01-26T06:20:25.308Z,6.00
2018-01-26T06:22:53.498Z,9.13
2018-01-26T06:25:21.698Z,7.00
2018-01-26T06:27:49.904Z,5.37
2018-01-26T06:30:18.103Z,4.17
2018-01-26T06:32:46.299Z,4.33
2018-01-26T06:35:14.504Z,4.13
2018-01-26T06:37:42.703Z,3.90
2018-01-26T06:40:10.904Z,3.80
2018-01-26T06:42:39.121Z,4.43
2018-01-26T06:45:06.530Z,4.00
2018-01-26T06:47:33.964Z,4.90
2018-01-26T06:50:02.168Z,4.03
2018-01-26T06:52:29.590Z,3.17
2018-01-26T06:54:57.026Z,3.77
2018-01-26T06:57:24.455Z,4.50
2018-01-26T06:59:51.894Z,4.80
2018-01-26T07:02:19.323Z,5.00
2018-01-26T07:04:47.510Z,4.60
2018-01-26T07:07:14.946Z,4.67
2018-01-26T07:09:43.133Z,4.73
2018-01-26T07:12:11.350Z,5.03
2018-01-26T07:14:38.779Z,5.30
2018-01-26T07:17:06.974Z,4.57
2018-01-26T07:19:34.399Z,4.00
2018-01-26T07:22:02.594Z,4.50
2018-01-26T07:24:30.787Z,4.17
2018-01-26T07:26:58.995Z,4.50
2018-01-26T07:29:27.188Z,4.43
2018-01-26T07:31:55.416Z,4.73
2018-01-26T07:34:22.839Z,4.87
2018-01-26T07:36:50.276Z,4.90
2018-01-26T07:39:17.694Z,4.30
2018-01-26T07:41:45.121Z,4.40
2018-01-26T07:44:12.551Z,5.40
2018-01-26T07:46:39.983Z,5.03
2018-01-26T07:49:07.406Z,5.27
2018-01-26T07:51:34.838Z,5.40
2018-01-26T07:54:03.036Z,4.77
2018-01-26T07:56:31.230Z,4.67
2018-01-26T07:58:59.432Z,7.10
2018-01-26T08:01:27.687Z,4.80
2018-01-26T08:03:55.115Z,5.30
2018-01-26T08:06:22.555Z,6.33
2018-01-26T08:08:49.978Z,5.07
2018-01-26T08:11:17.434Z,5.87
2018-01-26T08:13:45.632Z,5.57
2018-01-26T08:16:13.075Z,7.17
2018-01-26T08:18:40.494Z,6.30
2018-01-26T08:21:08.703Z,6.43
2018-01-26T08:23:36.890Z,6.17
2018-01-26T08:26:05.090Z,6.30
2018-01-26T08:28:32.519Z,6.20
2018-01-26T08:30:59.954Z,7.73
2018-01-26T08:33:28.145Z,7.37
2018-01-26T08:35:55.577Z,6.63
2018-01-26T08:38:23.016Z,7.80
2018-01-26T08:40:51.210Z,8.20
2018-01-26T08:43:19.417Z,8.30
2018-01-26T08:45:47.615Z,5.90
2018-01-26T08:48:15.807Z,6.13
2018-01-26T08:50:44.001Z,6.63
2018-01-26T08:53:12.207Z,7.30
2018-01-26T08:55:40.419Z,6.00
2018-01-26T08:58:07.842Z,6.13
2018-01-26T09:00:35.313Z,6.10
2018-01-26T09:03:03.473Z,5.70
2018-01-26T09:05:31.670Z,6.63
2018-01-26T09:07:59.106Z,5.20
2018-01-26T09:10:26.576Z,6.23
2018-01-26T09:12:54.821Z,5.10
2018-01-26T09:15:22.250Z,5.33
2018-01-26T09:17:49.688Z,7.10
2018-01-26T09:20:17.116Z,7.17
2018-01-26T09:22:45.314Z,7.07
2018-01-26T09:25:12.742Z,6.67
2018-01-26T09:27:40.187Z,7.43
2018-01-26T09:30:07.634Z,7.13
2018-01-26T09:32:35.074Z,6.40
2018-01-26T09:35:03.270Z,7.10
2018-01-26T09:37:31.470Z,8.00
2018-01-26T09:39:59.667Z,5.63
2018-01-26T09:42:27.098Z,6.63
2018-01-26T09:44:54.518Z,6.33
2018-01-26T09:47:21.979Z,6.60
2018-01-26T09:49:49.407Z,7.13
2018-01-26T09:52:16.838Z,6.90
2018-01-26T09:54:44.267Z,6.33
2018-01-26T09:57:12.470Z,6.33
2018-01-26T09:59:39.911Z,7.43
2018-01-26T10:02:07.352Z,7.00
2018-01-26T10:04:34.779Z,5.50
2018-01-26T10:07:02.232Z,6.70
2018-01-26T10:09:29.666Z,7.10
2018-01-26T10:11:57.862Z,6.60
2018-01-26T10:14:26.901Z,6.47
2018-01-26T10:16:54.338Z,7.30
2018-01-26T10:19:21.779Z,7.18
2018-01-26T10:21:49.214Z,6.87
2018-01-26T10:24:16.655Z,7.20
2018-01-26T10:26:44.082Z,6.78
2018-01-26T10:29:12.294Z,7.37
2018-01-26T10:31:40.486Z,6.33
2018-01-26T10:34:07.919Z,6.37
2018-01-26T10:36:35.403Z,6.50
2018-01-26T10:39:03.559Z,7.40
2018-01-26T10:41:30.978Z,5.97
2018-01-26T10:43:58.406Z,6.30
2018-01-26T10:46:25.842Z,5.97
2018-01-26T10:48:54.043Z,6.57
2018-01-26T10:51:22.239Z,6.07
2018-01-26T10:53:50.436Z,6.33
2018-01-26T10:56:18.648Z,5.77
2018-01-26T10:58:46.099Z,5.67
2018-01-26T11:01:13.526Z,5.27
2018-01-26T11:03:40.966Z,6.10
2018-01-26T11:06:08.400Z,6.47
2018-01-26T11:08:35.826Z,5.80
2018-01-26T11:11:04.025Z,5.80
2018-01-26T11:13:31.454Z,5.70
2018-01-26T11:15:58.895Z,5.70
2018-01-26T11:18:26.327Z,5.80
2018-01-26T11:20:53.749Z,6.80
2018-01-26T11:23:21.178Z,6.37
2018-01-26T11:25:48.611Z,5.50
2018-01-26T11:28:16.065Z,6.50
2018-01-26T11:30:43.504Z,6.60
2018-01-26T11:33:11.702Z,5.83
2018-01-26T11:35:39.895Z,6.00
2018-01-26T11:38:08.099Z,5.30
2018-01-26T11:40:36.296Z,5.70
2018-01-26T11:43:04.495Z,5.30
2018-01-26T11:45:32.695Z,4.80
2018-01-26T11:48:00.902Z,5.10
2018-01-26T11:50:29.086Z,5.70
2018-01-26T11:52:57.287Z,5.53
2018-01-26T11:55:25.520Z,5.00
2018-01-26T11:57:52.955Z,5.57
2018-01-26T12:00:20.379Z,5.70
2018-01-26T12:02:47.819Z,7.20
2018-01-26T12:05:15.246Z,6.20
2018-01-26T12:07:42.684Z,6.80
2018-01-26T12:10:10.098Z,6.70
2018-01-26T12:12:38.298Z,6.73
2018-01-26T12:15:05.719Z,7.17
2018-01-26T12:17:33.164Z,6.90
2018-01-26T12:20:00.586Z,6.53
2018-01-26T12:22:28.028Z,6.57
2018-01-26T12:24:55.769Z,6.70
2018-01-26T12:27:23.532Z,8.10
2018-01-26T12:29:52.023Z,7.00
2018-01-26T12:32:19.751Z,7.00
2018-01-26T12:34:47.471Z,7.23
2018-01-26T12:37:14.954Z,6.40
2018-01-26T12:39:42.371Z,6.30
2018-01-26T12:42:09.862Z,6.43
2018-01-26T12:44:37.266Z,7.20
2018-01-26T12:47:04.711Z,7.20
2018-01-26T12:49:32.195Z,7.20
2018-01-26T12:51:59.654Z,6.17
2018-01-26T12:54:27.120Z,5.50
2018-01-26T12:56:54.538Z,7.70
2018-01-26T12:59:21.970Z,7.67
2018-01-26T13:01:49.456Z,6.37
2018-01-26T13:04:16.880Z,7.47
2018-01-26T13:06:44.357Z,7.23
2018-01-26T13:09:12.612Z,6.83
2018-01-26T13:11:41.572Z,7.70
2018-01-26T13:14:09.041Z,7.67
2018-01-26T13:16:36.492Z,7.53
2018-01-26T13:19:04.742Z,8.17
2018-01-26T13:21:32.154Z,8.37
2018-01-26T13:23:59.853Z,8.80
2018-01-26T13:26:27.323Z,8.03
2018-01-26T13:28:54.748Z,8.13
2018-01-26T13:31:22.221Z,8.50
2018-01-26T13:33:50.448Z,9.27
2018-01-26T13:36:17.919Z,7.37
2018-01-26T13:38:46.106Z,7.47
2018-01-26T13:41:14.306Z,7.63
2018-01-26T13:43:42.502Z,7.47
2018-01-26T13:46:09.932Z,7.53
2018-01-26T13:48:37.362Z,7.10
2018-01-26T13:51:04.794Z,6.60
2018-01-26T13:53:32.414Z,7.83
2018-01-26T13:55:59.663Z,6.90
2018-01-26T13:58:27.099Z,7.10
2018-01-26T14:00:54.531Z,8.17
2018-01-26T14:03:21.958Z,7.23
2018-01-26T14:05:49.378Z,7.20
2018-01-26T14:08:17.578Z,7.10
2018-01-26T14:10:45.770Z,7.17
2018-01-26T14:13:13.970Z,9.40
2018-01-26T14:15:42.176Z,7.13
2018-01-26T14:18:10.366Z,7.50
2018-01-26T14:20:38.554Z,7.37
2018-01-26T14:23:05.995Z,8.27
2018-01-26T14:25:33.418Z,7.67
2018-01-26T14:28:00.854Z,8.00
2018-01-26T14:30:28.287Z,8.70
2018-01-26T14:32:56.507Z,8.07
2018-01-26T14:35:23.940Z,7.80
2018-01-26T14:37:51.375Z,7.40
2018-01-26T14:40:18.815Z,8.73
2018-01-26T14:42:46.241Z,9.27
2018-01-26T14:45:13.714Z,8.37
2018-01-26T14:47:41.137Z,8.23
2018-01-26T14:50:08.570Z,7.57
2018-01-26T14:52:35.998Z,6.80
2018-01-26T14:55:03.435Z,6.67
2018-01-26T14:57:30.871Z,7.73
2018-01-26T14:59:58.322Z,7.30
2018-01-26T15:02:25.772Z,7.40
2018-01-26T15:04:53.202Z,6.93
2018-01-26T15:07:20.645Z,7.67
2018-01-26T15:09:48.828Z,7.10
2018-01-26T15:12:17.019Z,5.77
2018-01-26T15:14:45.214Z,6.37
2018-01-26T15:17:13.403Z,6.83
2018-01-26T15:19:40.838Z,6.93
2018-01-26T15:22:08.258Z,6.60
2018-01-26T15:24:35.728Z,6.53
2018-01-26T15:27:03.156Z,7.13
2018-01-26T15:29:30.587Z,6.77
2018-01-26T15:31:58.015Z,6.10
2018-01-26T15:34:25.483Z,5.90
2018-01-26T15:36:53.684Z,5.70
2018-01-26T15:39:21.879Z,5.70
2018-01-26T15:41:50.154Z,5.80
2018-01-26T15:44:17.866Z,6.40
2018-01-26T15:46:45.587Z,5.80
2018-01-26T15:49:13.319Z,5.50
2018-01-26T15:51:40.803Z,4.40
2018-01-26T15:54:08.258Z,4.60
2018-01-26T15:56:35.993Z,4.83
2018-01-26T15:59:04.227Z,3.70
2018-01-26T16:01:31.699Z,4.43
2018-01-26T16:03:59.110Z,4.00
2018-01-26T16:06:26.585Z,3.40
2018-01-26T16:08:54.045Z,3.47
2018-01-26T16:11:21.521Z,3.63
2018-01-26T16:13:48.978Z,3.40
2018-01-26T16:16:17.169Z,3.20
2018-01-26T16:18:45.367Z,3.33
2018-01-26T16:21:13.623Z,3.60
2018-01-26T16:23:41.087Z,3.17
2018-01-26T16:26:08.506Z,4.00
2018-01-26T16:28:35.987Z,3.07
2018-01-26T16:31:03.451Z,3.80
2018-01-26T16:33:30.927Z,3.50
2018-01-26T16:35:58.382Z,3.40
2018-01-26T16:38:25.846Z,3.50
2018-01-26T16:40:53.301Z,3.73
2018-01-26T16:43:20.727Z,3.47
2018-01-26T16:45:48.210Z,3.60
2018-01-26T16:48:15.631Z,2.93
2018-01-26T16:50:43.097Z,3.63
2018-01-26T16:53:10.570Z,3.33
2018-01-26T16:55:38.042Z,3.07
2018-01-26T16:58:05.513Z,3.20
2018-01-26T17:00:32.970Z,2.87
2018-01-26T17:03:01.155Z,3.13
2018-01-26T17:05:29.356Z,3.43
2018-01-26T17:07:57.872Z,2.90
2018-01-26T17:10:26.361Z,3.40
2018-01-26T17:12:53.923Z,4.00
2018-01-26T17:15:21.336Z,5.90
2018-01-26T17:17:49.536Z,7.60
2018-01-26T17:20:17.770Z,8.43
2018-01-26T17:22:45.195Z,3.07
2018-01-26T17:25:12.678Z,3.03
2018-01-26T17:27:40.139Z,2.30
2018-01-26T17:30:07.554Z,2.50
2018-01-26T17:32:35.745Z,2.70
2018-01-26T17:35:03.934Z,2.90
2018-01-26T17:37:32.143Z,2.37
2018-01-26T17:40:00.339Z,2.73
2018-01-26T17:42:28.529Z,2.87
2018-01-26T17:44:55.975Z,2.20
2018-01-26T17:47:23.445Z,2.43
2018-01-26T17:49:50.913Z,2.73
2018-01-26T17:52:18.382Z,2.63
2018-01-26T17:54:46.613Z,9.70
2018-01-26T17:57:14.030Z,7.77
2018-01-26T17:59:41.514Z,6.80
2018-01-26T18:02:08.969Z,5.90
2018-01-26T18:04:36.448Z,5.77
2018-01-26T18:07:03.917Z,4.10
2018-01-26T18:09:31.390Z,2.70
2018-01-26T18:11:58.851Z,3.00
2018-01-26T18:14:27.091Z,2.70
2018-01-26T18:16:54.503Z,3.47
2018-01-26T18:19:22.707Z,5.77
2018-01-26T18:21:50.950Z,6.67
2018-01-26T18:24:18.364Z,7.07
2018-01-26T18:26:45.799Z,9.40
2018-01-26T18:29:13.228Z,6.87
2018-01-26T18:31:40.654Z,6.70
2018-01-26T18:34:08.134Z,6.60
2018-01-26T18:36:35.549Z,3.83
2018-01-26T18:39:02.981Z,3.10
2018-01-26T18:41:31.179Z,2.77
2018-01-26T18:43:58.662Z,3.23
2018-01-26T18:46:26.899Z,3.50
2018-01-26T18:48:54.377Z,3.93
2018-01-26T18:51:21.863Z,4.50
2018-01-26T18:53:49.275Z,4.07
2018-01-26T18:56:16.702Z,3.77
2018-01-26T18:58:44.135Z,2.80
2018-01-26T19:01:11.609Z,2.70
2018-01-26T19:03:39.079Z,4.20
2018-01-26T19:06:06.549Z,4.10
2018-01-26T19:08:34.002Z,3.40
2018-01-26T19:11:01.428Z,3.80
2018-01-26T19:13:28.911Z,5.10
2018-01-26T19:15:56.329Z,4.27
2018-01-26T19:18:24.570Z,4.60
2018-01-26T19:20:52.037Z,5.00
2018-01-26T19:23:19.446Z,4.20
2018-01-26T19:25:46.938Z,4.47
2018-01-26T19:28:14.355Z,4.70
2018-01-26T19:30:42.607Z,4.57
2018-01-26T19:33:10.082Z,4.30
2018-01-26T19:35:37.586Z,5.10
2018-01-26T19:38:05.055Z,5.23
2018-01-26T19:40:32.509Z,5.80
2018-01-26T19:42:59.985Z,5.47
2018-01-26T19:45:27.398Z,5.77
2018-01-26T19:47:54.840Z,5.77
2018-01-26T19:50:22.258Z,5.97
2018-01-26T19:52:49.738Z,5.93
2018-01-26T19:55:17.207Z,6.23
2018-01-26T19:57:44.622Z,6.63
2018-01-26T20:00:12.053Z,7.20
2018-01-26T20:02:39.542Z,7.23
2018-01-26T20:05:24.710Z,7.30
2018-01-26T20:08:00.748Z,7.20
2018-01-26T20:10:28.223Z,8.63
2018-01-26T20:13:01.478Z,7.00
2018-01-26T20:15:28.941Z,8.00
2018-01-26T20:17:56.405Z,8.17
2018-01-26T20:20:23.828Z,9.40
2018-01-26T20:22:52.075Z,9.30
2018-01-26T20:25:19.550Z,7.77
2018-01-26T20:27:47.014Z,8.00
2018-01-26T20:30:14.481Z,9.33
2018-01-26T20:32:42.709Z,9.03
2018-01-26T20:35:10.130Z,10.47
2018-01-26T20:37:38.381Z,9.07
2018-01-26T20:40:06.068Z,7.70
2018-01-26T20:42:33.547Z,10.37
2018-01-26T20:45:01.023Z,9.47
2018-01-26T20:47:28.439Z,9.53
2018-01-26T20:49:55.877Z,9.50
2018-01-26T20:52:23.353Z,9.37
2018-01-26T20:54:51.614Z,9.57
2018-01-26T20:57:19.083Z,9.67
2018-01-26T20:59:46.558Z,9.40
2018-01-26T21:02:14.035Z,10.20
2018-01-26T21:04:41.507Z,10.10
2018-01-26T21:07:08.969Z,11.47
2018-01-26T21:09:36.441Z,10.43
2018-01-26T21:12:03.905Z,9.80
2018-01-26T21:14:32.150Z,10.50
2018-01-26T21:16:59.622Z,11.73
2018-01-26T21:19:27.099Z,8.90
2018-01-26T21:21:54.506Z,9.33
2018-01-26T21:24:21.990Z,10.67
2018-01-26T21:26:50.184Z,10.80
2018-01-26T21:29:18.433Z,10.90
2018-01-26T21:31:46.679Z,10.50
2018-01-26T21:34:14.094Z,10.77
2018-01-26T21:36:42.357Z,11.33
2018-01-26T21:39:09.821Z,11.67
2018-01-26T21:41:37.297Z,9.40
2018-01-26T21:44:04.761Z,10.50
2018-01-26T21:46:32.997Z,9.30
2018-01-26T21:49:00.414Z,10.00
2018-01-26T21:51:28.665Z,9.90
2018-01-26T21:53:56.129Z,9.10
2018-01-26T21:56:23.612Z,10.53
2018-01-26T21:58:51.073Z,10.60
2018-01-26T22:01:18.542Z,8.43
2018-01-26T22:03:46.774Z,9.63
2018-01-26T22:06:19.849Z,9.90
2018-01-26T22:08:47.258Z,9.30
2018-01-26T22:11:14.710Z,10.00
2018-01-26T22:13:42.964Z,10.67
2018-01-26T22:16:10.433Z,9.30
2018-01-26T22:18:37.901Z,10.20
2018-01-26T22:21:05.378Z,9.37
2018-01-26T22:23:32.832Z,9.30
2018-01-26T22:26:00.301Z,8.97
2018-01-26T22:28:27.724Z,9.23
2018-01-26T22:30:55.150Z,8.50
2018-01-26T22:33:22.637Z,9.20
2018-01-26T22:35:50.110Z,8.37
2018-01-26T22:38:17.583Z,8.40
2018-01-26T22:40:45.063Z,9.07
2018-01-26T22:43:12.526Z,8.97
2018-01-26T22:45:39.956Z,8.80
2018-01-26T22:48:08.203Z,6.90
2018-01-26T22:50:35.690Z,10.30
2018-01-26T22:53:03.165Z,16.30
2018-01-26T22:55:30.629Z,16.33
2018-01-26T22:57:58.120Z,13.17
2018-01-26T23:00:25.847Z,15.20
2018-01-26T23:02:53.329Z,12.40
2018-01-26T23:05:20.797Z,12.20
2018-01-26T23:07:48.274Z,13.60
2018-01-26T23:10:15.733Z,11.37
2018-01-26T23:12:43.166Z,12.73
2018-01-26T23:15:11.413Z,12.80
2018-01-26T23:17:38.899Z,13.60
2018-01-26T23:20:06.320Z,13.17
2018-01-26T23:22:33.754Z,13.60
2018-01-26T23:25:01.182Z,12.57
2018-01-26T23:27:28.669Z,13.80
2018-01-26T23:29:56.124Z,12.10
2018-01-26T23:32:23.550Z,14.63
2018-01-26T23:34:51.039Z,13.17
2018-01-26T23:37:19.238Z,13.00
2018-01-26T23:39:46.707Z,13.73
2018-01-26T23:42:14.945Z,13.23
2018-01-26T23:44:42.430Z,15.90
2018-01-26T23:47:09.850Z,13.47
2018-01-26T23:49:37.286Z,15.00
2018-01-26T23:52:04.732Z,13.10
2018-01-26T23:54:32.973Z,13.60
2018-01-26T23:57:00.408Z,16.37
2018-01-26T23:59:28.611Z,15.13
